Time;durP1;ratioP1;P1;durP2;ratioP2;P2;SDS_P1;SDS_P2;PMS_P1;PMS_P2;Temp;Humidity;BMP_temperature;BMP_pressure;BME280_temperature;BME280_humidity;BME280_pressure;Samples;Min_cycle;Max_cycle;Signal;HPM_P1;HPM_P2
2023/07/12 00:00:45;;;;;;;4.00;1.40;;;21.30;99.90;;;;;;7276313;19;20205;-76
2023/07/12 00:03:12;;;;;;;6.57;1.37;;;21.20;99.90;;;;;;7277255;19;20770;-75
2023/07/12 00:05:38;;;;;;;4.13;1.17;;;21.20;99.90;;;;;;7276577;19;20603;-75
2023/07/12 00:08:05;;;;;;;4.87;1.90;;;21.20;99.90;;;;;;7277602;19;20181;-75
2023/07/12 00:10:34;;;;;;;5.90;1.60;;;21.20;99.90;;;;;;7305591;19;20188;-76
2023/07/12 00:13:00;;;;;;;4.37;1.40;;;21.30;99.90;;;;;;7284674;19;20648;-76
2023/07/12 00:15:30;;;;;;;6.43;1.60;;;21.20;99.90;;;;;;7284372;19;20193;-75
2023/07/12 00:17:56;;;;;;;4.70;1.40;;;21.30;99.90;;;;;;7282297;19;20220;-76
2023/07/12 00:20:42;;;;;;;5.40;1.30;;;21.30;99.90;;;;;;7283845;19;20672;-76
2023/07/12 00:23:12;;;;;;;4.20;1.50;;;21.30;99.90;;;;;;7180941;19;2004505;-76
2023/07/12 00:25:38;;;;;;;5.13;1.50;;;21.30;99.90;;;;;;7283180;19;20829;-76
2023/07/12 00:28:21;;;;;;;6.00;1.30;;;21.20;99.90;;;;;;7283633;19;20648;-78
2023/07/12 00:30:47;;;;;;;8.17;1.77;;;21.00;99.90;;;;;;7283737;19;20192;-77
2023/07/12 00:33:12;;;;;;;5.13;1.40;;;21.00;99.90;;;;;;7283626;19;20189;-77
2023/07/12 00:35:42;;;;;;;4.67;1.20;;;20.80;99.90;;;;;;7282691;19;20189;-76
2023/07/12 00:38:19;;;;;;;5.23;1.40;;;20.50;99.90;;;;;;7283059;19;20181;-76
2023/07/12 00:41:22;;;;;;;7.03;1.53;;;20.10;99.90;;;;;;7281971;19;20597;-76
2023/07/12 00:43:54;;;;;;;6.73;1.30;;;19.60;99.90;;;;;;7180086;19;2006063;-77
2023/07/12 00:46:36;;;;;;;5.63;1.50;;;19.30;99.90;;;;;;7283119;19;20189;-75
2023/07/12 00:49:01;;;;;;;6.73;1.33;;;19.20;99.90;;;;;;7275735;19;20200;-76
2023/07/12 00:51:27;;;;;;;6.40;1.60;;;19.20;99.90;;;;;;7298879;19;20192;-77
2023/07/12 00:53:54;;;;;;;8.77;1.63;;;19.20;99.90;;;;;;7283982;19;20196;-77
2023/07/12 00:56:20;;;;;;;4.37;1.57;;;19.20;99.90;;;;;;7280846;19;20195;-77
2023/07/12 00:58:52;;;;;;;5.13;1.63;;;19.30;99.90;;;;;;7283022;19;20192;-78
2023/07/12 01:01:18;;;;;;;6.40;1.40;;;19.30;99.90;;;;;;7281657;19;20201;-77
2023/07/12 01:03:45;;;;;;;4.80;1.47;;;19.40;99.90;;;;;;7282926;19;20199;-76
2023/07/12 01:06:15;;;;;;;5.27;1.40;;;19.50;99.90;;;;;;7282913;19;20193;-76
2023/07/12 01:08:41;;;;;;;4.13;1.43;;;19.60;99.90;;;;;;7283389;19;20568;-76
2023/07/12 01:11:12;;;;;;;4.10;1.43;;;19.60;99.90;;;;;;7282292;19;20199;-77
2023/07/12 01:13:42;;;;;;;5.03;1.47;;;19.30;99.90;;;;;;7282401;19;20199;-76
2023/07/12 01:16:10;;;;;;;6.23;1.40;;;19.00;99.90;;;;;;7281185;19;20204;-76
2023/07/12 01:18:37;;;;;;;6.07;1.70;;;18.70;99.90;;;;;;7282296;19;20207;-76
2023/07/12 01:21:09;;;;;;;5.37;1.67;;;18.40;99.90;;;;;;7282909;19;20197;-76
2023/07/12 01:23:36;;;;;;;5.43;1.60;;;18.20;99.90;;;;;;7281364;19;20220;-76
2023/07/12 01:26:14;;;;;;;4.63;1.73;;;18.10;99.90;;;;;;7288404;19;20191;-76
2023/07/12 01:28:43;;;;;;;6.07;1.70;;;18.00;99.90;;;;;;7281432;19;20561;-75
2023/07/12 01:31:09;;;;;;;6.83;1.60;;;17.90;99.90;;;;;;7281260;19;20186;-77
2023/07/12 01:33:34;;;;;;;6.80;1.87;;;17.90;99.90;;;;;;7281460;19;20200;-77
2023/07/12 01:36:00;;;;;;;3.60;1.57;;;18.00;99.90;;;;;;7303549;19;20200;-77
2023/07/12 01:38:26;;;;;;;7.47;1.77;;;18.10;99.90;;;;;;7282375;19;20691;-77
2023/07/12 01:40:52;;;;;;;5.60;1.70;;;18.20;99.90;;;;;;7281758;19;20210;-78
2023/07/12 01:43:18;;;;;;;7.60;1.90;;;18.40;99.90;;;;;;7281228;19;20197;-78
2023/07/12 01:45:44;;;;;;;5.30;1.77;;;18.50;99.90;;;;;;7280708;19;20667;-77
2023/07/12 01:48:10;;;;;;;4.00;1.60;;;18.60;99.90;;;;;;7282066;19;20205;-78
2023/07/12 01:50:37;;;;;;;7.60;2.00;;;18.60;99.90;;;;;;7282180;19;20188;-77
2023/07/12 01:53:03;;;;;;;5.23;1.87;;;18.60;99.90;;;;;;7287048;19;20209;-77
2023/07/12 01:55:29;;;;;;;6.40;1.90;;;18.60;99.90;;;;;;7303775;19;20202;-77
2023/07/12 01:57:54;;;;;;;7.00;1.90;;;18.60;99.90;;;;;;7280108;19;20672;-77
2023/07/12 02:00:20;;;;;;;8.63;2.53;;;18.70;99.90;;;;;;7279935;19;20701;-77
2023/07/12 02:02:47;;;;;;;7.13;1.90;;;18.80;99.90;;;;;;7280132;19;20189;-76
2023/07/12 02:05:13;;;;;;;6.17;1.83;;;18.80;99.90;;;;;;7280707;19;20209;-77
2023/07/12 02:07:39;;;;;;;5.50;1.57;;;18.80;99.90;;;;;;7280627;19;20534;-77
2023/07/12 02:10:17;;;;;;;7.97;1.83;;;18.90;99.90;;;;;;7278219;19;20208;-77
2023/07/12 02:12:43;;;;;;;6.10;1.87;;;18.80;99.90;;;;;;7280963;19;20199;-76
2023/07/12 02:15:11;;;;;;;5.70;2.03;;;18.80;99.90;;;;;;7280146;19;20284;-78
2023/07/12 02:17:37;;;;;;;6.43;1.90;;;18.80;99.90;;;;;;7280991;19;20189;-76
2023/07/12 02:20:04;;;;;;;4.87;1.87;;;18.80;99.90;;;;;;7280827;19;20182;-77
2023/07/12 02:22:32;;;;;;;5.60;1.93;;;18.80;99.90;;;;;;7301577;19;20255;-77
2023/07/12 02:24:57;;;;;;;6.47;1.90;;;18.70;99.90;;;;;;7281426;19;20947;-77
2023/07/12 02:27:23;;;;;;;4.83;1.77;;;18.70;99.90;;;;;;7280438;19;20196;-77
2023/07/12 02:29:49;;;;;;;7.03;1.80;;;18.70;99.90;;;;;;7278935;19;20739;-76
2023/07/12 02:32:15;;;;;;;6.97;1.87;;;18.70;99.90;;;;;;7279823;19;20193;-76
2023/07/12 02:34:40;;;;;;;7.20;1.90;;;18.80;99.90;;;;;;7279965;19;20192;-76
2023/07/12 02:37:06;;;;;;;6.07;1.60;;;18.70;99.90;;;;;;7281449;19;20191;-76
2023/07/12 02:39:32;;;;;;;7.03;1.73;;;18.70;99.90;;;;;;7290141;19;20191;-76
2023/07/12 02:41:57;;;;;;;7.67;2.10;;;18.70;99.90;;;;;;7296924;19;20184;-76
2023/07/12 02:44:24;;;;;;;8.30;2.10;;;18.80;99.90;;;;;;7280729;19;20201;-76
2023/07/12 02:46:49;;;;;;;8.70;2.20;;;18.80;99.90;;;;;;7279754;19;20189;-77
2023/07/12 02:49:15;;;;;;;11.17;2.80;;;18.90;99.90;;;;;;7278782;19;20200;-77
2023/07/12 02:51:41;;;;;;;10.50;2.90;;;18.90;99.90;;;;;;7280387;19;20187;-76
2023/07/12 02:54:06;;;;;;;11.33;3.13;;;18.90;99.90;;;;;;7278523;19;21160;-76
2023/07/12 02:56:32;;;;;;;9.17;3.10;;;18.90;99.90;;;;;;7289788;19;20210;-77
2023/07/12 02:58:58;;;;;;;8.03;3.20;;;18.90;99.90;;;;;;7300798;19;20185;-77
2023/07/12 03:01:24;;;;;;;9.20;3.37;;;19.00;99.90;;;;;;7281593;19;20195;-83
2023/07/12 03:03:52;;;;;;;11.90;3.30;;;19.00;99.90;;;;;;7281565;19;20196;-83
2023/07/12 03:06:18;;;;;;;11.83;3.50;;;18.90;99.90;;;;;;7282675;19;20188;-83
2023/07/12 03:08:44;;;;;;;10.57;3.30;;;18.90;99.90;;;;;;7281548;19;20188;-82
2023/07/12 03:11:10;;;;;;;8.97;3.20;;;19.00;99.90;;;;;;7281241;19;20644;-83
2023/07/12 03:13:36;;;;;;;9.67;3.50;;;18.80;99.90;;;;;;7300991;19;20216;-82
2023/07/12 03:16:07;;;;;;;9.57;3.10;;;18.80;99.90;;;;;;7311792;19;20184;-81
2023/07/12 03:18:33;;;;;;;8.00;3.30;;;18.80;99.90;;;;;;7307604;19;20189;-83
2023/07/12 03:21:00;;;;;;;9.23;3.57;;;18.90;99.90;;;;;;7321031;19;20184;-82
2023/07/12 03:23:26;;;;;;;10.90;3.23;;;18.80;99.90;;;;;;7299185;19;20201;-83
2023/07/12 03:25:51;;;;;;;7.47;3.13;;;18.80;99.90;;;;;;7286767;19;20347;-82
2023/07/12 03:28:17;;;;;;;8.73;3.00;;;18.80;99.90;;;;;;7280887;19;20617;-83
2023/07/12 03:30:43;;;;;;;10.13;3.40;;;18.80;99.90;;;;;;7280577;19;20556;-82
2023/07/12 03:33:08;;;;;;;12.10;3.67;;;18.70;99.90;;;;;;7281912;19;20533;-83
2023/07/12 03:35:34;;;;;;;10.93;3.23;;;18.60;99.90;;;;;;7279418;19;20192;-81
2023/07/12 03:38:00;;;;;;;9.97;3.37;;;18.60;99.90;;;;;;7301378;19;20188;-82
2023/07/12 03:40:25;;;;;;;10.87;3.83;;;18.50;99.90;;;;;;7279571;19;20181;-82
2023/07/12 03:42:51;;;;;;;8.50;3.27;;;18.50;99.90;;;;;;7280726;19;20217;-82
2023/07/12 03:45:16;;;;;;;12.10;3.60;;;18.60;99.90;;;;;;7284294;19;20194;-83
2023/07/12 03:47:42;;;;;;;13.70;3.60;;;18.50;99.90;;;;;;7285713;19;20535;-83
2023/07/12 03:50:08;;;;;;;10.13;3.80;;;18.50;99.90;;;;;;7287350;19;20232;-83
2023/07/12 03:52:34;;;;;;;10.40;3.40;;;18.50;99.90;;;;;;7285536;19;20260;-83
2023/07/12 03:55:00;;;;;;;9.87;3.70;;;18.40;99.90;;;;;;7309352;19;20605;-83
2023/07/12 03:57:25;;;;;;;8.10;3.27;;;18.30;99.90;;;;;;7287715;19;20558;-83
2023/07/12 03:59:51;;;;;;;10.60;3.63;;;18.30;99.90;;;;;;7287053;19;20221;-81
2023/07/12 04:02:17;;;;;;;16.37;4.03;;;18.30;99.90;;;;;;7286863;19;20660;-83
2023/07/12 04:04:42;;;;;;;9.90;3.30;;;18.40;99.90;;;;;;7285786;19;21036;-81
2023/07/12 04:07:08;;;;;;;10.37;3.70;;;18.30;99.90;;;;;;7286408;19;20195;-82
2023/07/12 04:09:34;;;;;;;9.67;3.63;;;18.40;99.90;;;;;;7285428;19;20208;-81
2023/07/12 04:11:59;;;;;;;11.13;3.40;;;18.50;99.90;;;;;;7306931;19;20211;-83
2023/07/12 04:14:25;;;;;;;12.83;3.27;;;18.50;99.90;;;;;;7286458;19;20197;-81
2023/07/12 04:16:51;;;;;;;10.57;3.53;;;18.40;99.90;;;;;;7286138;19;20198;-83
2023/07/12 04:19:16;;;;;;;11.30;3.90;;;18.40;99.90;;;;;;7285896;19;20539;-82
2023/07/12 04:21:42;;;;;;;12.53;3.60;;;18.40;99.90;;;;;;7284320;19;20219;-83
2023/07/12 04:24:08;;;;;;;12.37;3.67;;;18.50;99.90;;;;;;7284455;19;20185;-82
2023/07/12 04:26:33;;;;;;;11.73;4.00;;;18.50;99.90;;;;;;7284904;19;20972;-81
2023/07/12 04:29:00;;;;;;;14.17;4.57;;;18.50;99.90;;;;;;7308314;19;20306;-83
2023/07/12 04:31:26;;;;;;;12.33;4.13;;;18.60;99.90;;;;;;7286504;19;20683;-83
2023/07/12 04:33:52;;;;;;;10.70;3.60;;;18.60;99.90;;;;;;7284626;19;20289;-82
2023/07/12 04:36:19;;;;;;;10.43;3.63;;;18.70;99.90;;;;;;7284772;19;20611;-82
2023/07/12 04:38:44;;;;;;;10.27;3.67;;;18.60;99.90;;;;;;7286361;19;20188;-82
2023/07/12 04:41:10;;;;;;;14.00;3.57;;;18.70;99.90;;;;;;7284636;19;20571;-82
2023/07/12 04:43:36;;;;;;;12.33;3.60;;;18.70;99.90;;;;;;7284162;19;20199;-82
2023/07/12 04:46:03;;;;;;;9.60;3.67;;;18.50;99.90;;;;;;7299247;19;20382;-80
2023/07/12 04:48:30;;;;;;;9.07;2.97;;;18.60;99.90;;;;;;7306681;19;20720;-82
2023/07/12 04:50:56;;;;;;;12.30;3.37;;;18.70;99.90;;;;;;7285581;19;20209;-83
2023/07/12 04:53:22;;;;;;;9.77;3.20;;;18.70;99.90;;;;;;7284165;19;20202;-83
2023/07/12 04:55:52;;;;;;;13.33;3.40;;;18.70;99.90;;;;;;7283201;19;20199;-83
2023/07/12 04:58:19;;;;;;;8.87;3.40;;;18.80;99.90;;;;;;7285437;19;20261;-84
2023/07/12 05:00:45;;;;;;;11.43;3.40;;;18.80;99.90;;;;;;7284240;19;20192;-83
2023/07/12 05:03:12;;;;;;;14.40;2.87;;;18.80;99.90;;;;;;7284585;19;20197;-83
2023/07/12 05:05:39;;;;;;;6.03;2.30;;;19.20;99.90;;;;;;7285031;19;20196;-83
2023/07/12 05:08:05;;;;;;;7.20;2.63;;;20.80;99.90;;;;;;7283494;19;20185;-82
2023/07/12 05:10:32;;;;;;;9.97;2.90;;;21.60;99.90;;;;;;7305280;19;20192;-82
2023/07/12 05:12:57;;;;;;;10.93;2.87;;;21.80;99.90;;;;;;7284994;19;20256;-82
2023/07/12 05:15:23;;;;;;;8.03;2.50;;;21.40;99.90;;;;;;7284186;19;20652;-83
2023/07/12 05:17:49;;;;;;;9.83;2.30;;;21.00;99.90;;;;;;7283390;19;20259;-82
2023/07/12 05:20:16;;;;;;;9.47;2.50;;;20.40;99.90;;;;;;7283862;19;20609;-83
2023/07/12 05:22:43;;;;;;;10.90;2.60;;;20.30;99.90;;;;;;7283633;19;20200;-83
2023/07/12 05:25:09;;;;;;;10.20;2.60;;;20.20;99.90;;;;;;7282803;19;20183;-83
2023/07/12 05:27:35;;;;;;;9.13;2.80;;;20.00;99.90;;;;;;7282415;19;20206;-82
2023/07/12 05:30:02;;;;;;;9.67;2.47;;;20.10;99.90;;;;;;7305617;19;20203;-82
2023/07/12 05:32:28;;;;;;;10.47;3.03;;;19.90;99.90;;;;;;7283628;19;20640;-83
2023/07/12 05:34:53;;;;;;;11.73;2.50;;;19.90;99.90;;;;;;7283168;19;20703;-83
2023/07/12 05:37:19;;;;;;;13.23;2.70;;;20.00;99.90;;;;;;7284174;19;20185;-82
2023/07/12 05:39:45;;;;;;;11.37;3.23;;;20.30;99.90;;;;;;7281524;19;20196;-82
2023/07/12 05:42:11;;;;;;;8.40;2.73;;;20.90;99.90;;;;;;7283432;19;20860;-82
2023/07/12 05:44:37;;;;;;;6.23;2.20;;;21.50;99.90;;;;;;7281245;19;20200;-83
2023/07/12 05:47:02;;;;;;;11.93;2.80;;;21.60;99.90;;;;;;7290959;19;20256;-82
2023/07/12 05:49:28;;;;;;;14.47;2.70;;;21.30;99.90;;;;;;7305168;19;20185;-83
2023/07/12 05:51:54;;;;;;;10.07;2.63;;;21.00;99.90;;;;;;7282180;19;20297;-82
2023/07/12 05:54:20;;;;;;;12.60;2.43;;;20.70;99.90;;;;;;7282914;19;20184;-82
2023/07/12 05:56:46;;;;;;;13.27;2.57;;;20.60;99.90;;;;;;7282981;19;20652;-82
2023/07/12 05:59:11;;;;;;;12.57;3.07;;;20.50;99.90;;;;;;7282085;19;20205;-81
2023/07/12 06:01:37;;;;;;;10.83;2.23;;;20.40;99.90;;;;;;7281750;19;20231;-81
2023/07/12 06:04:03;;;;;;;11.67;2.80;;;20.10;99.90;;;;;;7287456;19;20188;-82
2023/07/12 06:06:29;;;;;;;12.83;2.60;;;20.10;99.90;;;;;;7303210;19;20199;-83
2023/07/12 06:08:54;;;;;;;9.53;2.60;;;20.10;99.90;;;;;;7281255;19;20189;-83
2023/07/12 06:11:21;;;;;;;8.07;2.40;;;20.10;99.90;;;;;;7282174;19;20186;-82
2023/07/12 06:13:47;;;;;;;9.57;2.73;;;20.20;99.90;;;;;;7282968;19;20598;-82
2023/07/12 06:16:13;;;;;;;11.67;3.00;;;20.10;99.90;;;;;;7281350;19;20188;-81
2023/07/12 06:18:38;;;;;;;12.30;2.77;;;19.90;99.90;;;;;;7282060;19;20676;-81
2023/07/12 06:21:09;;;;;;;12.33;2.40;;;20.00;99.90;;;;;;7282566;19;20186;-81
2023/07/12 06:23:36;;;;;;;13.53;2.50;;;20.30;99.90;;;;;;7280590;19;20185;-81
2023/07/12 06:26:01;;;;;;;9.40;2.53;;;20.70;99.90;;;;;;7304484;19;20176;-83
2023/07/12 06:28:28;;;;;;;12.07;2.30;;;21.20;99.90;;;;;;7282943;19;20195;-82
2023/07/12 06:30:54;;;;;;;8.07;2.00;;;21.90;99.90;;;;;;7282776;19;20203;-81
2023/07/12 06:33:19;;;;;;;10.60;2.40;;;22.50;99.90;;;;;;7282227;19;20208;-82
2023/07/12 06:35:45;;;;;;;12.03;2.00;;;23.20;99.90;;;;;;7284767;19;20185;-83
2023/07/12 06:38:12;;;;;;;9.13;2.23;;;23.00;99.90;;;;;;7293912;19;20206;-81
2023/07/12 06:40:38;;;;;;;9.00;2.03;;;23.60;99.90;;;;;;7297178;19;20181;-82
2023/07/12 06:43:04;;;;;;;8.03;2.23;;;23.50;99.90;;;;;;7297238;19;20584;-80
2023/07/12 06:45:30;;;;;;;9.07;1.90;;;23.00;99.90;;;;;;7319156;19;20226;-82
2023/07/12 06:47:56;;;;;;;8.67;1.80;;;23.10;99.90;;;;;;7297464;19;20819;-81
2023/07/12 06:50:22;;;;;;;7.17;2.10;;;23.50;99.90;;;;;;7301051;19;20204;-81
2023/07/12 06:52:47;;;;;;;9.90;2.27;;;23.40;99.90;;;;;;7300072;19;20192;-82
2023/07/12 06:55:13;;;;;;;7.47;1.80;;;23.20;99.90;;;;;;7299370;19;20189;-81
2023/07/12 06:57:39;;;;;;;10.87;2.30;;;22.90;99.90;;;;;;7288910;19;20188;-82
2023/07/12 07:00:07;;;;;;;15.97;2.47;;;23.00;99.90;;;;;;7283191;19;20189;-81
2023/07/12 07:02:34;;;;;;;11.33;2.13;;;22.80;99.90;;;;;;7281855;19;20185;-81
2023/07/12 07:05:00;;;;;;;9.53;2.00;;;22.70;99.90;;;;;;7305264;19;20608;-82
2023/07/12 07:07:27;;;;;;;8.87;2.20;;;22.30;99.90;;;;;;7281987;19;20644;-82
2023/07/12 07:09:53;;;;;;;12.90;2.30;;;22.00;99.90;;;;;;7282576;19;20185;-82
2023/07/12 07:12:19;;;;;;;12.13;2.27;;;21.70;99.90;;;;;;7279163;19;20252;-83
2023/07/12 07:14:44;;;;;;;13.03;3.00;;;21.70;99.90;;;;;;7281578;19;20192;-81
2023/07/12 07:17:13;;;;;;;10.60;2.30;;;21.70;99.90;;;;;;7280446;19;20185;-83
2023/07/12 07:19:38;;;;;;;12.10;2.43;;;21.90;99.90;;;;;;7287775;19;20310;-81
2023/07/12 07:22:06;;;;;;;13.30;2.57;;;22.10;99.90;;;;;;7288890;19;20202;-81
2023/07/12 07:24:32;;;;;;;17.10;2.37;;;22.00;99.90;;;;;;7307622;19;20215;-77
2023/07/12 07:26:57;;;;;;;12.13;2.37;;;22.10;99.90;;;;;;7295504;19;20186;-82
2023/07/12 07:29:23;;;;;;;9.50;2.40;;;22.10;99.90;;;;;;7287958;19;20182;-82
2023/07/12 07:31:48;;;;;;;10.13;2.20;;;22.40;99.90;;;;;;7287894;19;20652;-81
2023/07/12 07:34:14;;;;;;;9.00;2.00;;;22.20;99.90;;;;;;7284957;19;20200;-76
2023/07/12 07:36:41;;;;;;;9.27;2.50;;;22.20;99.90;;;;;;7284755;19;20193;-76
2023/07/12 07:39:07;;;;;;;11.77;2.50;;;22.20;99.90;;;;;;7285216;19;20192;-76
2023/07/12 07:41:33;;;;;;;11.03;2.10;;;22.40;99.90;;;;;;7296655;19;20185;-76
2023/07/12 07:43:58;;;;;;;11.33;2.50;;;22.50;99.90;;;;;;7304240;19;20244;-77
2023/07/12 07:46:25;;;;;;;9.73;2.23;;;22.40;99.90;;;;;;7285715;19;20188;-76
2023/07/12 07:48:50;;;;;;;13.20;2.20;;;22.40;99.90;;;;;;7284418;19;20248;-76
2023/07/12 07:51:17;;;;;;;13.73;2.63;;;22.50;99.90;;;;;;7283336;19;20301;-77
2023/07/12 07:53:43;;;;;;;11.20;2.10;;;22.30;99.90;;;;;;7284190;19;20185;-77
2023/07/12 07:56:08;;;;;;;10.83;2.10;;;22.40;99.90;;;;;;7284157;19;20710;-77
2023/07/12 07:58:34;;;;;;;9.13;1.90;;;22.50;99.90;;;;;;7283077;19;20189;-77
2023/07/12 08:01:00;;;;;;;15.00;2.50;;;22.60;99.90;;;;;;7304993;19;20189;-77
2023/07/12 08:03:26;;;;;;;9.07;2.10;;;23.00;99.90;;;;;;7284702;19;20224;-77
2023/07/12 08:05:52;;;;;;;9.60;2.57;;;23.20;99.90;;;;;;7283582;19;20224;-77
2023/07/12 08:08:20;;;;;;;10.93;2.20;;;23.40;99.90;;;;;;7284491;19;20261;-82
2023/07/12 08:10:48;;;;;;;11.67;2.20;;;24.00;99.90;;;;;;7285610;19;20203;-82
2023/07/12 08:13:13;;;;;;;13.30;2.23;;;24.60;99.90;;;;;;7284109;19;20657;-81
2023/07/12 08:15:41;;;;;;;10.20;1.95;;;25.40;99.90;;;;;;7286059;19;20189;-81
2023/07/12 08:18:10;;;;;;;11.18;1.60;;;26.70;99.90;;;;;;7287309;19;20244;-80
2023/07/12 08:20:36;;;;;;;11.88;1.92;;;27.60;99.90;;;;;;7284673;19;20192;-80
2023/07/12 08:23:03;;;;;;;9.00;1.80;;;28.30;99.90;;;;;;7301994;19;21741;-80
2023/07/12 08:25:28;;;;;;;8.85;1.60;;;29.60;99.90;;;;;;7304485;19;20188;-82
2023/07/12 08:27:54;;;;;;;9.77;1.58;;;29.90;99.90;;;;;;7286513;19;20228;-76
2023/07/12 08:30:20;;;;;;;8.32;1.60;;;28.80;99.90;;;;;;7281920;19;20260;-76
2023/07/12 08:32:46;;;;;;;8.00;1.70;;;27.80;99.90;;;;;;7283599;19;20193;-76
2023/07/12 08:35:11;;;;;;;10.50;1.88;;;26.80;99.90;;;;;;7283396;19;20189;-76
2023/07/12 08:37:37;;;;;;;9.00;1.65;;;25.90;99.90;;;;;;7283664;19;20206;-76
2023/07/12 08:40:05;;;;;;;11.88;2.10;;;25.90;99.90;;;;;;7289081;19;20185;-77
2023/07/12 08:42:36;;;;;;;11.30;1.77;;;25.70;99.90;;;;;;7304006;19;20704;-76
2023/07/12 08:45:23;;;;;;;6.18;1.65;;;26.20;99.90;;;;;;7277891;19;20276;-76
2023/07/12 08:47:53;;;;;;;11.40;2.00;;;27.60;99.90;;;;;;7282558;19;20197;-76
2023/07/12 08:50:19;;;;;;;10.73;1.67;;;28.10;99.90;;;;;;7284083;19;20188;-76
2023/07/12 08:52:45;;;;;;;9.43;1.70;;;28.80;99.90;;;;;;7283089;19;20185;-77
2023/07/12 08:55:15;;;;;;;8.45;1.50;;;28.90;99.90;;;;;;7280767;19;20213;-76
2023/07/12 08:57:41;;;;;;;10.05;1.50;;;30.70;99.90;;;;;;7282068;19;20305;-77
2023/07/12 09:00:16;;;;;;;8.88;1.83;;;31.90;99.90;;;;;;7282136;19;20578;-76
2023/07/12 09:02:42;;;;;;;7.68;1.60;;;32.20;99.90;;;;;;7282189;19;20197;-77
2023/07/12 09:05:20;;;;;;;8.25;1.58;;;32.70;99.90;;;;;;7282365;19;20195;-77
2023/07/12 09:08:04;;;;;;;7.90;1.27;;;34.40;98.90;;;;;;7281505;19;20215;-76
2023/07/12 09:10:34;;;;;;;8.98;1.45;;;34.50;95.50;;;;;;7283728;19;20220;-76
2023/07/12 09:13:01;;;;;;;9.40;1.60;;;33.50;94.70;;;;;;7283273;19;20192;-76
2023/07/12 09:15:36;;;;;;;5.07;1.30;;;33.70;94.10;;;;;;7282717;19;20189;-75
2023/07/12 09:18:05;;;;;;;6.75;1.23;;;32.10;94.90;;;;;;7282236;19;20225;-76
2023/07/12 09:20:33;;;;;;;7.55;1.50;;;32.80;95.10;;;;;;7282526;19;20213;-75
2023/07/12 09:23:00;;;;;;;6.65;1.40;;;33.70;92.00;;;;;;7281541;19;20667;-76
2023/07/12 09:25:47;;;;;;;7.07;1.65;;;33.30;91.40;;;;;;7281542;19;20191;-76
2023/07/12 09:28:16;;;;;;;11.18;1.50;;;33.20;91.20;;;;;;7179508;19;2005065;-76
2023/07/12 09:30:42;;;;;;;8.88;1.40;;;33.70;90.40;;;;;;7281484;19;20228;-76
2023/07/12 09:33:21;;;;;;;5.75;1.30;;;34.30;91.60;;;;;;7280713;19;20256;-76
2023/07/12 09:35:49;;;;;;;7.25;1.45;;;35.60;86.40;;;;;;7281275;19;20236;-76
2023/07/12 09:38:17;;;;;;;5.28;1.17;;;36.70;81.90;;;;;;7281444;19;20185;-76
2023/07/12 09:40:48;;;;;;;5.45;1.00;;;35.60;81.50;;;;;;7278398;19;20610;-75
2023/07/12 09:43:16;;;;;;;6.55;1.20;;;35.80;78.90;;;;;;7280835;19;20202;-76
2023/07/12 09:45:49;;;;;;;7.03;1.50;;;35.00;78.10;;;;;;7281179;19;20193;-76
2023/07/12 09:48:55;;;;;;;7.35;1.50;;;34.80;81.90;;;;;;7281130;19;20193;-76
2023/07/12 09:51:37;;;;;;;8.10;1.48;;;33.10;81.00;;;;;;7178971;19;2004788;-76
2023/07/12 09:54:27;;;;;;;6.70;1.15;;;32.60;80.50;;;;;;7270925;19;20197;-76
2023/07/12 09:57:02;;;;;;;10.05;1.48;;;32.00;85.70;;;;;;7280659;19;20593;-77
2023/07/12 09:59:49;;;;;;;9.32;1.77;;;32.40;84.80;;;;;;7280714;19;20192;-77
2023/07/12 10:02:51;;;;;;;7.88;1.40;;;31.20;86.70;;;;;;7177811;19;2004648;-76
2023/07/12 10:05:21;;;;;;;5.95;1.23;;;30.60;90.70;;;;;;7179072;19;2005030;-77
2023/07/12 10:08:00;;;;;;;8.20;1.63;;;29.70;90.90;;;;;;7280109;19;20524;-77
2023/07/12 10:10:46;;;;;;;6.30;1.30;;;28.50;92.30;;;;;;7280729;19;20211;-77
2023/07/12 10:13:14;;;;;;;5.05;1.15;;;28.70;93.90;;;;;;7176428;19;2004605;-78
2023/07/12 10:15:40;;;;;;;9.52;1.40;;;30.30;94.60;;;;;;7280844;19;20554;-77
2023/07/12 10:18:17;;;;;;;11.80;1.85;;;32.70;92.90;;;;;;7279636;19;20326;-77
2023/07/12 10:20:44;;;;;;;8.40;1.38;;;33.70;89.80;;;;;;7280137;19;20200;-78
2023/07/12 10:23:12;;;;;;;7.68;1.20;;;34.30;82.90;;;;;;7280541;19;20184;-76
2023/07/12 10:25:44;;;;;;;6.40;1.20;;;33.90;81.30;;;;;;7279675;19;20193;-75
2023/07/12 10:28:22;;;;;;;7.03;1.23;;;34.80;80.40;;;;;;7279426;19;20196;-75
2023/07/12 10:30:50;;;;;;;7.63;1.30;;;36.50;78.70;;;;;;7279165;19;20199;-76
2023/07/12 10:33:35;;;;;;;8.48;1.50;;;36.10;77.40;;;;;;7279483;19;20188;-76
2023/07/12 10:36:07;;;;;;;10.15;1.63;;;34.50;75.80;;;;;;7279705;19;20181;-76
2023/07/12 10:38:32;;;;;;;10.00;1.50;;;32.50;79.60;;;;;;7275096;19;20561;-76
2023/07/12 10:41:12;;;;;;;8.88;1.38;;;32.00;84.20;;;;;;7293147;19;20205;-76
2023/07/12 10:43:47;;;;;;;7.50;1.10;;;33.00;85.40;;;;;;7178215;19;2005075;-77
2023/07/12 10:46:32;;;;;;;8.38;1.23;;;33.20;80.80;;;;;;7281307;19;20195;-77
2023/07/12 10:49:02;;;;;;;13.43;1.60;;;34.00;79.00;;;;;;7279405;19;20188;-76
2023/07/12 10:51:40;;;;;;;7.65;1.60;;;34.70;78.20;;;;;;7280914;19;20207;-82
2023/07/12 10:54:31;;;;;;;7.43;1.60;;;35.50;75.60;;;;;;7257656;19;20180;-82
2023/07/12 10:57:24;;;;;;;8.45;1.42;;;35.50;75.00;;;;;;7281657;19;20877;-82
2023/07/12 11:00:00;;;;;;;8.32;1.33;;;35.80;72.30;;;;;;7178685;19;2004638;-75
2023/07/12 11:02:28;;;;;;;6.82;1.40;;;35.70;71.50;;;;;;7277819;19;20665;-76
2023/07/12 11:04:57;;;;;;;4.10;1.00;;;35.00;69.70;;;;;;7279332;19;20253;-75
2023/07/12 11:07:22;;;;;;;3.78;1.10;;;35.00;71.10;;;;;;7277702;19;20230;-76
2023/07/12 11:09:50;;;;;;;5.07;1.20;;;34.80;72.30;;;;;;7280609;19;20188;-81
2023/07/12 11:12:31;;;;;;;5.60;1.42;;;35.60;72.10;;;;;;7280516;19;20196;-81
2023/07/12 11:15:12;;;;;;;5.05;1.20;;;35.20;70.10;;;;;;7281594;19;20196;-83
2023/07/12 11:18:03;;;;;;;4.40;1.00;;;33.00;70.20;;;;;;7178526;19;2005185;-82
2023/07/12 11:20:35;;;;;;;6.63;1.10;;;33.90;73.80;;;;;;7280883;19;20184;-75
2023/07/12 11:23:07;;;;;;;7.38;1.23;;;35.10;73.90;;;;;;7278097;19;20283;-76
2023/07/12 11:25:52;;;;;;;5.88;1.20;;;34.10;74.40;;;;;;7270731;19;20540;-75
2023/07/12 11:28:21;;;;;;;7.55;1.38;;;35.10;71.00;;;;;;7279303;19;20212;-76
2023/07/12 11:31:02;;;;;;;7.18;1.40;;;33.80;70.90;;;;;;7278648;19;20192;-76
2023/07/12 11:33:34;;;;;;;5.20;1.10;;;33.50;73.90;;;;;;7277251;19;20530;-76
2023/07/12 11:36:19;;;;;;;7.47;1.30;;;34.20;74.10;;;;;;7277999;19;20193;-76
2023/07/12 11:38:46;;;;;;;4.80;1.10;;;34.10;72.40;;;;;;7175985;19;2004477;-77
2023/07/12 11:41:22;;;;;;;5.95;1.30;;;34.20;72.30;;;;;;7277850;19;20569;-76
2023/07/12 11:44:01;;;;;;;6.72;1.02;;;33.80;70.60;;;;;;7276946;19;20288;-76
2023/07/12 11:46:36;;;;;;;4.97;0.80;;;34.50;73.00;;;;;;7277721;19;20184;-77
2023/07/12 11:49:11;;;;;;;4.90;1.05;;;34.30;66.40;;;;;;7278725;19;20617;-77
2023/07/12 11:51:39;;;;;;;5.90;1.13;;;33.10;67.30;;;;;;7256751;19;20542;-77
2023/07/12 11:54:38;;;;;;;7.07;0.93;;;32.90;70.00;;;;;;7277110;19;20653;-76
2023/07/12 11:57:08;;;;;;;4.28;0.63;;;34.10;70.60;;;;;;7264373;19;20196;-76
2023/07/12 11:59:36;;;;;;;3.85;0.90;;;34.20;65.00;;;;;;7285284;19;20675;-76
2023/07/12 12:02:05;;;;;;;6.90;0.93;;;32.20;66.60;;;;;;7299662;19;20218;-76
2023/07/12 12:04:31;;;;;;;4.97;0.90;;;30.10;70.40;;;;;;7278298;19;20287;-76
2023/07/12 12:07:11;;;;;;;3.47;0.88;;;29.50;75.00;;;;;;7283196;19;20601;-76
2023/07/12 12:09:37;;;;;;;2.70;0.65;;;29.00;77.00;;;;;;7263464;19;20196;-77
2023/07/12 12:12:06;;;;;;;4.75;0.80;;;28.30;76.90;;;;;;7292695;19;20185;-76
2023/07/12 12:14:40;;;;;;;4.43;0.88;;;28.10;79.30;;;;;;7304401;19;20301;-76
2023/07/12 12:17:13;;;;;;;4.28;0.90;;;27.90;82.10;;;;;;7282419;19;20193;-76
2023/07/12 12:19:39;;;;;;;5.55;1.10;;;28.10;83.60;;;;;;7283438;19;20200;-76
2023/07/12 12:22:15;;;;;;;16.65;1.55;;;27.90;85.10;;;;;;7283829;19;20185;-76
2023/07/12 12:24:54;;;;;;;6.00;0.82;;;28.00;84.70;;;;;;7283538;19;20256;-76
2023/07/12 12:27:36;;;;;;;4.82;0.90;;;27.80;82.40;;;;;;7283999;19;20216;-77
2023/07/12 12:30:19;;;;;;;5.75;0.95;;;28.00;87.60;;;;;;7283837;19;20181;-77
2023/07/12 12:33:00;;;;;;;4.85;0.80;;;28.10;83.60;;;;;;7180798;19;2004553;-76
2023/07/12 12:35:26;;;;;;;6.05;0.73;;;28.10;84.60;;;;;;7286352;19;20586;-77
2023/07/12 12:37:56;;;;;;;4.60;1.00;;;28.20;82.60;;;;;;7291785;19;20184;-76
2023/07/12 12:40:22;;;;;;;7.20;0.93;;;27.90;84.20;;;;;;7289659;19;20184;-76
2023/07/12 12:43:05;;;;;;;6.40;0.88;;;27.80;84.50;;;;;;7288646;19;20315;-76
2023/07/12 12:45:36;;;;;;;4.40;0.80;;;28.00;85.90;;;;;;7291680;19;20711;-76
2023/07/12 12:48:09;;;;;;;5.05;0.90;;;28.20;84.90;;;;;;7289674;19;20185;-77
2023/07/12 12:50:35;;;;;;;2.75;0.70;;;28.00;80.50;;;;;;7267395;19;20322;-76
2023/07/12 12:53:04;;;;;;;3.30;0.75;;;28.30;83.30;;;;;;7309555;19;20189;-77